sensor_id;sensor_type;location;lat;lon;timestamp;temperature;humidity
13245;DHT22;6689;53.400;12.486;2022-09-12T00:01:38;14.90;99.90
13245;DHT22;6689;53.400;12.486;2022-09-12T00:04:19;14.90;99.90
13245;DHT22;6689;53.400;12.486;2022-09-12T00:06:48;14.80;99.90
13245;DHT22;6689;53.400;12.486;2022-09-12T00:09:29;14.80;99.90
13245;DHT22;6689;53.400;12.486;2022-09-12T00:12:13;14.80;99.90
13245;DHT22;6689;53.400;12.486;2022-09-12T00:14:54;14.80;99.90
13245;DHT22;6689;53.400;12.486;2022-09-12T00:17:22;14.70;99.90
13245;DHT22;6689;53.400;12.486;2022-09-12T00:19:54;14.70;99.90
13245;DHT22;6689;53.400;12.486;2022-09-12T00:22:22;14.60;99.90
13245;DHT22;6689;53.400;12.486;2022-09-12T00:24:54;14.60;99.90
13245;DHT22;6689;53.400;12.486;2022-09-12T00:27:41;14.60;99.90
13245;DHT22;6689;53.400;12.486;2022-09-12T00:30:24;14.60;99.90
13245;DHT22;6689;53.400;12.486;2022-09-12T00:32:52;14.60;99.90
13245;DHT22;6689;53.400;12.486;2022-09-12T00:35:33;14.50;99.90
13245;DHT22;6689;53.400;12.486;2022-09-12T00:38:15;14.50;99.90
13245;DHT22;6689;53.400;12.486;2022-09-12T00:40:44;14.50;99.90
13245;DHT22;6689;53.400;12.486;2022-09-12T00:43:34;14.50;99.90
13245;DHT22;6689;53.400;12.486;2022-09-12T00:46:09;14.50;99.90
13245;DHT22;6689;53.400;12.486;2022-09-12T00:48:51;14.50;99.90
13245;DHT22;6689;53.400;12.486;2022-09-12T00:51:25;14.40;99.90
13245;DHT22;6689;53.400;12.486;2022-09-12T00:53:54;14.40;99.90
13245;DHT22;6689;53.400;12.486;2022-09-12T00:56:25;14.40;99.90
13245;DHT22;6689;53.400;12.486;2022-09-12T00:59:02;14.30;99.90
13245;DHT22;6689;53.400;12.486;2022-09-12T01:01:33;14.30;99.90
13245;DHT22;6689;53.400;12.486;2022-09-12T01:04:15;14.30;99.90
13245;DHT22;6689;53.400;12.486;2022-09-12T01:06:44;14.30;99.90
13245;DHT22;6689;53.400;12.486;2022-09-12T01:09:16;14.20;99.90
13245;DHT22;6689;53.400;12.486;2022-09-12T01:11:58;14.20;99.90
13245;DHT22;6689;53.400;12.486;2022-09-12T01:14:52;14.20;99.90
13245;DHT22;6689;53.400;12.486;2022-09-12T01:17:24;14.20;99.90
13245;DHT22;6689;53.400;12.486;2022-09-12T01:20:27;14.10;99.90
13245;DHT22;6689;53.400;12.486;2022-09-12T01:23:36;14.10;99.90
13245;DHT22;6689;53.400;12.486;2022-09-12T01:26:41;14.00;99.90
13245;DHT22;6689;53.400;12.486;2022-09-12T01:29:43;14.00;99.90
13245;DHT22;6689;53.400;12.486;2022-09-12T01:32:44;13.90;99.90
13245;DHT22;6689;53.400;12.486;2022-09-12T01:35:24;13.90;99.90
13245;DHT22;6689;53.400;12.486;2022-09-12T01:38:11;13.90;99.90
13245;DHT22;6689;53.400;12.486;2022-09-12T01:41:00;13.90;99.90
13245;DHT22;6689;53.400;12.486;2022-09-12T01:43:33;13.90;99.90
13245;DHT22;6689;53.400;12.486;2022-09-12T01:46:08;13.90;99.90
13245;DHT22;6689;53.400;12.486;2022-09-12T01:48:53;13.90;99.90
13245;DHT22;6689;53.400;12.486;2022-09-12T01:51:26;13.90;99.90
13245;DHT22;6689;53.400;12.486;2022-09-12T01:53:57;13.90;99.90
13245;DHT22;6689;53.400;12.486;2022-09-12T01:56:35;13.80;99.90
13245;DHT22;6689;53.400;12.486;2022-09-12T01:59:07;13.80;99.90
13245;DHT22;6689;53.400;12.486;2022-09-12T02:01:52;13.80;99.90
13245;DHT22;6689;53.400;12.486;2022-09-12T02:04:48;13.80;99.90
13245;DHT22;6689;53.400;12.486;2022-09-12T02:07:20;13.80;99.90
13245;DHT22;6689;53.400;12.486;2022-09-12T02:09:52;13.80;99.90
13245;DHT22;6689;53.400;12.486;2022-09-12T02:12:40;13.80;99.90
13245;DHT22;6689;53.400;12.486;2022-09-12T02:15:11;13.80;99.90
13245;DHT22;6689;53.400;12.486;2022-09-12T02:17:55;13.70;99.90
13245;DHT22;6689;53.400;12.486;2022-09-12T02:20:35;13.70;99.90
13245;DHT22;6689;53.400;12.486;2022-09-12T02:23:07;13.70;99.90
13245;DHT22;6689;53.400;12.486;2022-09-12T02:25:51;13.60;99.90
13245;DHT22;6689;53.400;12.486;2022-09-12T02:28:30;13.60;99.90
13245;DHT22;6689;53.400;12.486;2022-09-12T02:31:10;13.60;99.90
13245;DHT22;6689;53.400;12.486;2022-09-12T02:33:45;13.60;99.90
13245;DHT22;6689;53.400;12.486;2022-09-12T02:36:45;13.50;99.90
13245;DHT22;6689;53.400;12.486;2022-09-12T02:39:28;13.60;99.90
13245;DHT22;6689;53.400;12.486;2022-09-12T02:42:03;13.50;99.90
13245;DHT22;6689;53.400;12.486;2022-09-12T02:44:44;13.50;99.90
13245;DHT22;6689;53.400;12.486;2022-09-12T02:47:28;13.50;99.90
13245;DHT22;6689;53.400;12.486;2022-09-12T02:50:06;13.50;99.90
13245;DHT22;6689;53.400;12.486;2022-09-12T02:52:44;13.50;99.90
13245;DHT22;6689;53.400;12.486;2022-09-12T02:55:14;13.50;99.90
13245;DHT22;6689;53.400;12.486;2022-09-12T02:57:55;13.50;99.90
13245;DHT22;6689;53.400;12.486;2022-09-12T03:00:41;13.50;99.90
13245;DHT22;6689;53.400;12.486;2022-09-12T03:03:37;13.50;99.90
13245;DHT22;6689;53.400;12.486;2022-09-12T03:06:15;13.50;99.90
13245;DHT22;6689;53.400;12.486;2022-09-12T03:08:57;13.50;99.90
13245;DHT22;6689;53.400;12.486;2022-09-12T03:11:47;13.50;99.90
13245;DHT22;6689;53.400;12.486;2022-09-12T03:14:53;13.50;99.90
13245;DHT22;6689;53.400;12.486;2022-09-12T03:17:29;13.50;99.90
13245;DHT22;6689;53.400;12.486;2022-09-12T03:20:02;13.50;99.90
13245;DHT22;6689;53.400;12.486;2022-09-12T03:22:51;13.50;99.90
13245;DHT22;6689;53.400;12.486;2022-09-12T03:25:45;13.50;99.90
13245;DHT22;6689;53.400;12.486;2022-09-12T03:28:16;13.50;99.90
13245;DHT22;6689;53.400;12.486;2022-09-12T03:30:47;13.40;99.90
13245;DHT22;6689;53.400;12.486;2022-09-12T03:33:17;13.40;99.90
13245;DHT22;6689;53.400;12.486;2022-09-12T03:35:44;13.40;99.90
13245;DHT22;6689;53.400;12.486;2022-09-12T03:38:20;13.40;99.90
13245;DHT22;6689;53.400;12.486;2022-09-12T03:41:04;13.40;99.90
13245;DHT22;6689;53.400;12.486;2022-09-12T03:43:45;13.30;99.90
13245;DHT22;6689;53.400;12.486;2022-09-12T03:46:26;13.30;99.90
13245;DHT22;6689;53.400;12.486;2022-09-12T03:48:55;13.20;99.90
13245;DHT22;6689;53.400;12.486;2022-09-12T03:51:24;13.20;99.90
13245;DHT22;6689;53.400;12.486;2022-09-12T03:53:55;13.20;99.90
13245;DHT22;6689;53.400;12.486;2022-09-12T03:56:35;13.10;99.90
13245;DHT22;6689;53.400;12.486;2022-09-12T03:59:10;13.10;99.90
13245;DHT22;6689;53.400;12.486;2022-09-12T04:01:45;13.00;99.90
13245;DHT22;6689;53.400;12.486;2022-09-12T04:04:19;13.00;99.90
13245;DHT22;6689;53.400;12.486;2022-09-12T04:07:00;13.00;99.90
13245;DHT22;6689;53.400;12.486;2022-09-12T04:09:37;13.00;99.90
13245;DHT22;6689;53.400;12.486;2022-09-12T04:12:16;13.00;99.90
13245;DHT22;6689;53.400;12.486;2022-09-12T04:14:45;12.90;99.90
13245;DHT22;6689;53.400;12.486;2022-09-12T04:17:20;12.90;99.90
13245;DHT22;6689;53.400;12.486;2022-09-12T04:20:01;12.90;99.90
13245;DHT22;6689;53.400;12.486;2022-09-12T04:22:36;12.90;99.90
13245;DHT22;6689;53.400;12.486;2022-09-12T04:25:06;12.90;99.90
13245;DHT22;6689;53.400;12.486;2022-09-12T04:27:45;12.80;99.90
13245;DHT22;6689;53.400;12.486;2022-09-12T04:30:20;12.80;99.90
13245;DHT22;6689;53.400;12.486;2022-09-12T04:32:51;12.80;99.90
13245;DHT22;6689;53.400;12.486;2022-09-12T04:35:20;12.70;99.90
13245;DHT22;6689;53.400;12.486;2022-09-12T04:38:01;12.70;99.90
13245;DHT22;6689;53.400;12.486;2022-09-12T04:40:41;12.70;99.90
13245;DHT22;6689;53.400;12.486;2022-09-12T04:43:39;12.70;99.90
13245;DHT22;6689;53.400;12.486;2022-09-12T04:46:11;12.60;99.90
13245;DHT22;6689;53.400;12.486;2022-09-12T04:48:47;12.60;99.90
13245;DHT22;6689;53.400;12.486;2022-09-12T04:51:17;12.60;99.90
13245;DHT22;6689;53.400;12.486;2022-09-12T04:53:50;12.60;99.90
13245;DHT22;6689;53.400;12.486;2022-09-12T04:56:18;12.60;99.90
13245;DHT22;6689;53.400;12.486;2022-09-12T04:58:48;12.60;99.90
13245;DHT22;6689;53.400;12.486;2022-09-12T05:01:17;12.60;99.90
13245;DHT22;6689;53.400;12.486;2022-09-12T05:03:47;12.60;99.90
13245;DHT22;6689;53.400;12.486;2022-09-12T05:06:17;12.60;99.90
13245;DHT22;6689;53.400;12.486;2022-09-12T05:08:59;12.60;99.90
13245;DHT22;6689;53.400;12.486;2022-09-12T05:11:33;12.60;99.90
13245;DHT22;6689;53.400;12.486;2022-09-12T05:14:06;12.60;99.90
13245;DHT22;6689;53.400;12.486;2022-09-12T05:16:35;12.60;99.90
13245;DHT22;6689;53.400;12.486;2022-09-12T05:19:11;12.70;99.90
13245;DHT22;6689;53.400;12.486;2022-09-12T05:21:39;12.70;99.90
13245;DHT22;6689;53.400;12.486;2022-09-12T05:24:08;12.60;99.90
13245;DHT22;6689;53.400;12.486;2022-09-12T05:26:37;12.70;99.90
13245;DHT22;6689;53.400;12.486;2022-09-12T05:29:06;12.80;99.90
13245;DHT22;6689;53.400;12.486;2022-09-12T05:31:41;12.80;99.90
13245;DHT22;6689;53.400;12.486;2022-09-12T05:34:17;12.80;99.90
13245;DHT22;6689;53.400;12.486;2022-09-12T05:36:57;12.80;99.90
13245;DHT22;6689;53.400;12.486;2022-09-12T05:39:32;12.90;99.90
13245;DHT22;6689;53.400;12.486;2022-09-12T05:42:01;12.90;99.90
13245;DHT22;6689;53.400;12.486;2022-09-12T05:45:01;13.00;99.90
13245;DHT22;6689;53.400;12.486;2022-09-12T05:47:29;13.10;99.90
13245;DHT22;6689;53.400;12.486;2022-09-12T05:49:56;13.10;99.90
13245;DHT22;6689;53.400;12.486;2022-09-12T05:52:27;13.10;99.90
13245;DHT22;6689;53.400;12.486;2022-09-12T05:54:57;13.20;99.90
13245;DHT22;6689;53.400;12.486;2022-09-12T05:57:38;13.20;99.90
13245;DHT22;6689;53.400;12.486;2022-09-12T06:00:21;13.30;99.90
13245;DHT22;6689;53.400;12.486;2022-09-12T06:02:56;13.30;99.90
13245;DHT22;6689;53.400;12.486;2022-09-12T06:05:38;13.40;99.90
13245;DHT22;6689;53.400;12.486;2022-09-12T06:08:06;13.50;99.90
13245;DHT22;6689;53.400;12.486;2022-09-12T06:10:47;13.60;99.90
13245;DHT22;6689;53.400;12.486;2022-09-12T06:13:17;13.70;99.90
13245;DHT22;6689;53.400;12.486;2022-09-12T06:15:53;13.90;99.90
13245;DHT22;6689;53.400;12.486;2022-09-12T06:18:37;14.00;1.00
13245;DHT22;6689;53.400;12.486;2022-09-12T06:21:19;14.10;99.90
13245;DHT22;6689;53.400;12.486;2022-09-12T06:23:47;14.20;1.00
13245;DHT22;6689;53.400;12.486;2022-09-12T06:26:28;14.40;1.00
13245;DHT22;6689;53.400;12.486;2022-09-12T06:28:58;14.50;99.90
13245;DHT22;6689;53.400;12.486;2022-09-12T06:31:31;14.60;1.00
13245;DHT22;6689;53.400;12.486;2022-09-12T06:34:05;14.60;1.00
13245;DHT22;6689;53.400;12.486;2022-09-12T06:36:35;14.60;1.00
13245;DHT22;6689;53.400;12.486;2022-09-12T06:39:07;14.60;1.00
13245;DHT22;6689;53.400;12.486;2022-09-12T06:41:37;14.60;1.00
13245;DHT22;6689;53.400;12.486;2022-09-12T06:44:20;14.80;1.00
13245;DHT22;6689;53.400;12.486;2022-09-12T06:47:03;15.20;1.00
13245;DHT22;6689;53.400;12.486;2022-09-12T06:49:44;15.70;1.00
13245;DHT22;6689;53.400;12.486;2022-09-12T06:52:12;16.30;1.00
13245;DHT22;6689;53.400;12.486;2022-09-12T06:54:53;16.90;1.00
13245;DHT22;6689;53.400;12.486;2022-09-12T06:57:24;17.40;1.00
13245;DHT22;6689;53.400;12.486;2022-09-12T06:59:56;18.10;99.90
13245;DHT22;6689;53.400;12.486;2022-09-12T07:02:28;18.70;99.90
13245;DHT22;6689;53.400;12.486;2022-09-12T07:05:09;19.40;99.90
13245;DHT22;6689;53.400;12.486;2022-09-12T07:07:41;20.30;99.90
13245;DHT22;6689;53.400;12.486;2022-09-12T07:10:13;21.30;99.90
13245;DHT22;6689;53.400;12.486;2022-09-12T07:12:43;22.30;25.30
13245;DHT22;6689;53.400;12.486;2022-09-12T07:15:18;23.50;1.00
13245;DHT22;6689;53.400;12.486;2022-09-12T07:17:57;25.00;1.00
13245;DHT22;6689;53.400;12.486;2022-09-12T07:20:37;26.30;1.00
13245;DHT22;6689;53.400;12.486;2022-09-12T07:23:09;27.80;1.00
13245;DHT22;6689;53.400;12.486;2022-09-12T07:25:53;29.00;1.00
13245;DHT22;6689;53.400;12.486;2022-09-12T07:28:34;30.10;1.00
13245;DHT22;6689;53.400;12.486;2022-09-12T07:31:09;31.30;1.00
13245;DHT22;6689;53.400;12.486;2022-09-12T07:33:44;31.90;1.00
13245;DHT22;6689;53.400;12.486;2022-09-12T07:36:17;31.70;1.00
13245;DHT22;6689;53.400;12.486;2022-09-12T07:38:58;32.30;1.00
13245;DHT22;6689;53.400;12.486;2022-09-12T07:41:39;32.70;1.00
13245;DHT22;6689;53.400;12.486;2022-09-12T07:44:13;33.30;1.00
13245;DHT22;6689;53.400;12.486;2022-09-12T07:46:42;34.00;99.90
13245;DHT22;6689;53.400;12.486;2022-09-12T07:49:32;34.30;99.90
13245;DHT22;6689;53.400;12.486;2022-09-12T07:52:13;34.80;99.90
13245;DHT22;6689;53.400;12.486;2022-09-12T07:54:54;33.50;99.90
13245;DHT22;6689;53.400;12.486;2022-09-12T07:57:23;32.50;99.90
13245;DHT22;6689;53.400;12.486;2022-09-12T08:00:05;34.20;99.90
13245;DHT22;6689;53.400;12.486;2022-09-12T08:02:33;34.30;99.90
13245;DHT22;6689;53.400;12.486;2022-09-12T08:05:13;34.60;99.90
13245;DHT22;6689;53.400;12.486;2022-09-12T08:07:43;34.70;99.90
13245;DHT22;6689;53.400;12.486;2022-09-12T08:10:12;35.30;99.90
13245;DHT22;6689;53.400;12.486;2022-09-12T08:12:53;35.60;99.90
13245;DHT22;6689;53.400;12.486;2022-09-12T08:15:34;36.00;99.90
13245;DHT22;6689;53.400;12.486;2022-09-12T08:18:03;36.50;99.90
13245;DHT22;6689;53.400;12.486;2022-09-12T08:20:48;36.20;99.90
13245;DHT22;6689;53.400;12.486;2022-09-12T08:23:18;36.20;99.90
13245;DHT22;6689;53.400;12.486;2022-09-12T08:25:49;35.50;99.90
13245;DHT22;6689;53.400;12.486;2022-09-12T08:28:31;34.90;99.90
13245;DHT22;6689;53.400;12.486;2022-09-12T08:31:00;35.40;99.90
13245;DHT22;6689;53.400;12.486;2022-09-12T08:33:29;35.40;99.90
13245;DHT22;6689;53.400;12.486;2022-09-12T08:39:12;32.10;99.90
13245;DHT22;6689;53.400;12.486;2022-09-12T08:41:55;30.40;1.00
13245;DHT22;6689;53.400;12.486;2022-09-12T08:44:57;28.70;1.00
13245;DHT22;6689;53.400;12.486;2022-09-12T08:47:32;26.60;1.00
13245;DHT22;6689;53.400;12.486;2022-09-12T08:50:18;25.40;1.00
13245;DHT22;6689;53.400;12.486;2022-09-12T08:53:03;24.80;1.00
13245;DHT22;6689;53.400;12.486;2022-09-12T08:55:58;24.40;1.00
13245;DHT22;6689;53.400;12.486;2022-09-12T08:58:41;24.80;1.00
13245;DHT22;6689;53.400;12.486;2022-09-12T09:01:15;24.20;1.00
13245;DHT22;6689;53.400;12.486;2022-09-12T09:04:34;23.50;1.00
13245;DHT22;6689;53.400;12.486;2022-09-12T09:07:25;23.00;1.00
13245;DHT22;6689;53.400;12.486;2022-09-12T09:10:07;22.60;1.00
13245;DHT22;6689;53.400;12.486;2022-09-12T09:12:58;22.20;1.00
13245;DHT22;6689;53.400;12.486;2022-09-12T09:15:42;21.70;1.00
13245;DHT22;6689;53.400;12.486;2022-09-12T09:18:28;21.40;1.00
13245;DHT22;6689;53.400;12.486;2022-09-12T09:21:18;21.30;1.00
13245;DHT22;6689;53.400;12.486;2022-09-12T09:23:53;21.30;1.00
13245;DHT22;6689;53.400;12.486;2022-09-12T09:26:25;21.30;1.00
13245;DHT22;6689;53.400;12.486;2022-09-12T09:32:16;21.30;1.00
13245;DHT22;6689;53.400;12.486;2022-09-12T09:34:44;21.20;1.00
13245;DHT22;6689;53.400;12.486;2022-09-12T09:37:31;21.20;1.00
13245;DHT22;6689;53.400;12.486;2022-09-12T09:40:20;21.30;1.00
13245;DHT22;6689;53.400;12.486;2022-09-12T09:42:56;21.30;1.00
13245;DHT22;6689;53.400;12.486;2022-09-12T09:45:25;21.20;1.00
13245;DHT22;6689;53.400;12.486;2022-09-12T09:48:15;21.20;1.00
13245;DHT22;6689;53.400;12.486;2022-09-12T09:50:45;21.20;1.00
13245;DHT22;6689;53.400;12.486;2022-09-12T09:53:26;21.30;1.00
13245;DHT22;6689;53.400;12.486;2022-09-12T09:55:56;21.50;1.00
13245;DHT22;6689;53.400;12.486;2022-09-12T09:58:30;21.60;1.00
13245;DHT22;6689;53.400;12.486;2022-09-12T10:01:02;21.80;1.00
13245;DHT22;6689;53.400;12.486;2022-09-12T10:03:51;21.90;1.00
13245;DHT22;6689;53.400;12.486;2022-09-12T10:06:28;21.80;1.00
13245;DHT22;6689;53.400;12.486;2022-09-12T10:09:31;21.90;1.00
13245;DHT22;6689;53.400;12.486;2022-09-12T10:12:01;21.90;1.00
13245;DHT22;6689;53.400;12.486;2022-09-12T10:14:56;21.80;1.00
13245;DHT22;6689;53.400;12.486;2022-09-12T10:17:28;21.70;1.00
13245;DHT22;6689;53.400;12.486;2022-09-12T10:23:29;21.90;1.00
13245;DHT22;6689;53.400;12.486;2022-09-12T10:26:12;21.90;1.00
13245;DHT22;6689;53.400;12.486;2022-09-12T10:28:42;21.80;1.00
13245;DHT22;6689;53.400;12.486;2022-09-12T10:31:26;21.60;1.00
13245;DHT22;6689;53.400;12.486;2022-09-12T10:33:57;21.70;1.00
13245;DHT22;6689;53.400;12.486;2022-09-12T10:36:34;21.70;1.00
13245;DHT22;6689;53.400;12.486;2022-09-12T10:39:26;22.00;1.00
13245;DHT22;6689;53.400;12.486;2022-09-12T10:41:59;22.10;1.00
13245;DHT22;6689;53.400;12.486;2022-09-12T10:44:28;22.00;1.00
13245;DHT22;6689;53.400;12.486;2022-09-12T10:47:18;22.00;1.00
13245;DHT22;6689;53.400;12.486;2022-09-12T10:49:47;22.10;1.00
13245;DHT22;6689;53.400;12.486;2022-09-12T10:52:21;22.30;1.00
13245;DHT22;6689;53.400;12.486;2022-09-12T10:54:56;22.60;1.00
13245;DHT22;6689;53.400;12.486;2022-09-12T10:57:50;22.70;1.00
13245;DHT22;6689;53.400;12.486;2022-09-12T11:00:21;22.90;1.00
13245;DHT22;6689;53.400;12.486;2022-09-12T11:03:09;23.00;1.00
13245;DHT22;6689;53.400;12.486;2022-09-12T11:05:59;23.00;1.00
13245;DHT22;6689;53.400;12.486;2022-09-12T11:08:55;23.20;1.00
13245;DHT22;6689;53.400;12.486;2022-09-12T11:15:14;23.30;1.00
13245;DHT22;6689;53.400;12.486;2022-09-12T11:17:50;23.40;1.00
13245;DHT22;6689;53.400;12.486;2022-09-12T11:20:45;23.50;1.00
13245;DHT22;6689;53.400;12.486;2022-09-12T11:23:37;23.60;1.00
13245;DHT22;6689;53.400;12.486;2022-09-12T11:26:16;23.60;1.00
13245;DHT22;6689;53.400;12.486;2022-09-12T11:29:09;23.50;1.00
13245;DHT22;6689;53.400;12.486;2022-09-12T11:32:01;23.40;1.00
13245;DHT22;6689;53.400;12.486;2022-09-12T11:34:39;23.40;1.00
13245;DHT22;6689;53.400;12.486;2022-09-12T11:40:31;23.60;1.00
13245;DHT22;6689;53.400;12.486;2022-09-12T11:43:06;23.60;1.00
13245;DHT22;6689;53.400;12.486;2022-09-12T11:45:41;23.70;1.00
13245;DHT22;6689;53.400;12.486;2022-09-12T11:48:17;23.80;1.00
13245;DHT22;6689;53.400;12.486;2022-09-12T11:50:45;23.70;1.00
13245;DHT22;6689;53.400;12.486;2022-09-12T11:53:18;23.70;1.00
13245;DHT22;6689;53.400;12.486;2022-09-12T11:56:06;23.70;1.00
13245;DHT22;6689;53.400;12.486;2022-09-12T11:58:41;23.70;1.00
13245;DHT22;6689;53.400;12.486;2022-09-12T12:01:14;23.60;1.00
13245;DHT22;6689;53.400;12.486;2022-09-12T12:07:20;23.50;1.00
13245;DHT22;6689;53.400;12.486;2022-09-12T12:09:50;23.40;1.00
13245;DHT22;6689;53.400;12.486;2022-09-12T12:12:24;23.40;1.00
13245;DHT22;6689;53.400;12.486;2022-09-12T12:14:53;23.40;1.00
13245;DHT22;6689;53.400;12.486;2022-09-12T12:17:26;23.50;1.00
13245;DHT22;6689;53.400;12.486;2022-09-12T12:20:15;23.40;1.00
13245;DHT22;6689;53.400;12.486;2022-09-12T12:22:52;23.30;1.00
13245;DHT22;6689;53.400;12.486;2022-09-12T12:25:50;23.30;1.00
13245;DHT22;6689;53.400;12.486;2022-09-12T12:28:54;23.40;1.00
13245;DHT22;6689;53.400;12.486;2022-09-12T12:32:22;23.30;1.00
13245;DHT22;6689;53.400;12.486;2022-09-12T12:38:32;23.30;1.00
13245;DHT22;6689;53.400;12.486;2022-09-12T12:47:23;23.30;1.00
13245;DHT22;6689;53.400;12.486;2022-09-12T12:49:56;23.30;1.00
13245;DHT22;6689;53.400;12.486;2022-09-12T12:52:30;23.30;1.00
13245;DHT22;6689;53.400;12.486;2022-09-12T12:55:14;23.30;1.00
13245;DHT22;6689;53.400;12.486;2022-09-12T12:57:49;23.30;1.00
13245;DHT22;6689;53.400;12.486;2022-09-12T13:00:30;23.30;1.00
13245;DHT22;6689;53.400;12.486;2022-09-12T13:03:09;23.30;1.00
13245;DHT22;6689;53.400;12.486;2022-09-12T13:05:39;23.40;1.00
13245;DHT22;6689;53.400;12.486;2022-09-12T13:08:25;23.40;1.00
13245;DHT22;6689;53.400;12.486;2022-09-12T13:10:59;23.40;1.00
13245;DHT22;6689;53.400;12.486;2022-09-12T13:13:31;23.30;1.00
13245;DHT22;6689;53.400;12.486;2022-09-12T13:16:04;23.30;1.00
13245;DHT22;6689;53.400;12.486;2022-09-12T13:18:39;23.30;1.00
13245;DHT22;6689;53.400;12.486;2022-09-12T13:21:08;23.20;1.00
13245;DHT22;6689;53.400;12.486;2022-09-12T13:23:39;23.20;1.00
13245;DHT22;6689;53.400;12.486;2022-09-12T13:26:13;23.20;1.00
13245;DHT22;6689;53.400;12.486;2022-09-12T13:28:48;23.30;1.00
13245;DHT22;6689;53.400;12.486;2022-09-12T13:31:21;23.30;1.00
13245;DHT22;6689;53.400;12.486;2022-09-12T13:33:56;23.30;1.00
13245;DHT22;6689;53.400;12.486;2022-09-12T13:36:41;23.20;1.00
13245;DHT22;6689;53.400;12.486;2022-09-12T13:39:27;23.30;1.00
13245;DHT22;6689;53.400;12.486;2022-09-12T13:45:02;23.30;1.00
13245;DHT22;6689;53.400;12.486;2022-09-12T13:47:37;23.30;1.00
13245;DHT22;6689;53.400;12.486;2022-09-12T13:50:16;23.40;1.00
13245;DHT22;6689;53.400;12.486;2022-09-12T13:52:54;23.30;1.00
13245;DHT22;6689;53.400;12.486;2022-09-12T13:59:02;23.30;1.00
13245;DHT22;6689;53.400;12.486;2022-09-12T14:01:38;23.30;1.00
13245;DHT22;6689;53.400;12.486;2022-09-12T14:04:14;23.30;1.00
13245;DHT22;6689;53.400;12.486;2022-09-12T14:07:02;23.30;1.00
13245;DHT22;6689;53.400;12.486;2022-09-12T14:09:39;23.30;1.00
13245;DHT22;6689;53.400;12.486;2022-09-12T14:12:14;23.20;1.00
13245;DHT22;6689;53.400;12.486;2022-09-12T14:14:50;23.20;1.00
13245;DHT22;6689;53.400;12.486;2022-09-12T14:17:23;23.20;1.00
13245;DHT22;6689;53.400;12.486;2022-09-12T14:19:58;23.20;1.00
13245;DHT22;6689;53.400;12.486;2022-09-12T14:22:28;23.20;1.00
13245;DHT22;6689;53.400;12.486;2022-09-12T14:24:56;23.10;1.00
13245;DHT22;6689;53.400;12.486;2022-09-12T14:27:26;23.10;1.00
13245;DHT22;6689;53.400;12.486;2022-09-12T14:30:00;23.10;1.00
13245;DHT22;6689;53.400;12.486;2022-09-12T14:32:38;23.10;1.00
13245;DHT22;6689;53.400;12.486;2022-09-12T14:35:18;23.10;1.00
13245;DHT22;6689;53.400;12.486;2022-09-12T14:37:49;23.10;1.00
13245;DHT22;6689;53.400;12.486;2022-09-12T14:40:19;23.00;1.00
13245;DHT22;6689;53.400;12.486;2022-09-12T14:43:02;23.00;1.00
13245;DHT22;6689;53.400;12.486;2022-09-12T14:45:52;22.90;1.00
13245;DHT22;6689;53.400;12.486;2022-09-12T14:48:24;22.90;1.00
13245;DHT22;6689;53.400;12.486;2022-09-12T14:50:53;22.80;1.00
13245;DHT22;6689;53.400;12.486;2022-09-12T14:53:33;22.90;1.00
13245;DHT22;6689;53.400;12.486;2022-09-12T14:56:07;22.90;1.00
13245;DHT22;6689;53.400;12.486;2022-09-12T14:58:43;22.80;1.00
13245;DHT22;6689;53.400;12.486;2022-09-12T15:01:44;22.80;1.00
13245;DHT22;6689;53.400;12.486;2022-09-12T15:04:37;22.80;1.00
13245;DHT22;6689;53.400;12.486;2022-09-12T15:07:13;22.70;1.00
13245;DHT22;6689;53.400;12.486;2022-09-12T15:09:48;22.70;1.00
13245;DHT22;6689;53.400;12.486;2022-09-12T15:12:29;22.70;1.00
13245;DHT22;6689;53.400;12.486;2022-09-12T15:15:03;22.70;1.00
13245;DHT22;6689;53.400;12.486;2022-09-12T15:20:51;22.60;1.00
13245;DHT22;6689;53.400;12.486;2022-09-12T15:23:33;22.60;1.00
13245;DHT22;6689;53.400;12.486;2022-09-12T15:26:05;22.50;1.00
13245;DHT22;6689;53.400;12.486;2022-09-12T15:28:46;22.50;1.00
13245;DHT22;6689;53.400;12.486;2022-09-12T15:31:29;22.50;1.00
13245;DHT22;6689;53.400;12.486;2022-09-12T15:34:10;22.50;1.00
13245;DHT22;6689;53.400;12.486;2022-09-12T15:36:57;22.40;1.00
13245;DHT22;6689;53.400;12.486;2022-09-12T15:39:33;22.40;1.00
13245;DHT22;6689;53.400;12.486;2022-09-12T15:42:02;22.30;1.00
13245;DHT22;6689;53.400;12.486;2022-09-12T15:44:44;22.30;1.00
13245;DHT22;6689;53.400;12.486;2022-09-12T15:47:24;22.30;1.00
13245;DHT22;6689;53.400;12.486;2022-09-12T15:49:53;22.30;1.00
13245;DHT22;6689;53.400;12.486;2022-09-12T15:52:39;22.20;1.00
13245;DHT22;6689;53.400;12.486;2022-09-12T15:55:22;22.20;1.00
13245;DHT22;6689;53.400;12.486;2022-09-12T15:58:04;22.10;1.00
13245;DHT22;6689;53.400;12.486;2022-09-12T16:00:38;22.10;1.00
13245;DHT22;6689;53.400;12.486;2022-09-12T16:03:22;22.10;1.00
13245;DHT22;6689;53.400;12.486;2022-09-12T16:05:49;22.10;1.00
13245;DHT22;6689;53.400;12.486;2022-09-12T16:08:38;22.10;1.00
13245;DHT22;6689;53.400;12.486;2022-09-12T16:11:09;22.10;1.00
13245;DHT22;6689;53.400;12.486;2022-09-12T16:13:39;22.10;1.00
13245;DHT22;6689;53.400;12.486;2022-09-12T16:16:10;22.10;1.00
13245;DHT22;6689;53.400;12.486;2022-09-12T16:18:39;22.10;1.00
13245;DHT22;6689;53.400;12.486;2022-09-12T16:21:14;22.00;1.00
13245;DHT22;6689;53.400;12.486;2022-09-12T16:23:51;22.10;1.00
13245;DHT22;6689;53.400;12.486;2022-09-12T16:26:23;22.10;1.00
13245;DHT22;6689;53.400;12.486;2022-09-12T16:28:59;22.10;1.00
13245;DHT22;6689;53.400;12.486;2022-09-12T16:31:27;22.10;1.00
13245;DHT22;6689;53.400;12.486;2022-09-12T16:33:55;22.10;1.00
13245;DHT22;6689;53.400;12.486;2022-09-12T16:36:24;22.10;1.00
13245;DHT22;6689;53.400;12.486;2022-09-12T16:39:08;22.00;1.00
13245;DHT22;6689;53.400;12.486;2022-09-12T16:41:35;22.00;1.00
13245;DHT22;6689;53.400;12.486;2022-09-12T16:44:06;21.90;1.00
13245;DHT22;6689;53.400;12.486;2022-09-12T16:46:34;21.90;1.00
13245;DHT22;6689;53.400;12.486;2022-09-12T16:49:05;21.80;1.00
13245;DHT22;6689;53.400;12.486;2022-09-12T16:51:34;21.70;1.00
13245;DHT22;6689;53.400;12.486;2022-09-12T16:57:29;21.60;1.00
13245;DHT22;6689;53.400;12.486;2022-09-12T17:00:11;21.50;1.00
13245;DHT22;6689;53.400;12.486;2022-09-12T17:02:52;21.30;1.00
13245;DHT22;6689;53.400;12.486;2022-09-12T17:05:20;21.20;1.00
13245;DHT22;6689;53.400;12.486;2022-09-12T17:07:51;21.20;1.00
13245;DHT22;6689;53.400;12.486;2022-09-12T17:10:19;21.10;1.00
13245;DHT22;6689;53.400;12.486;2022-09-12T17:13:04;21.00;1.00
13245;DHT22;6689;53.400;12.486;2022-09-12T17:15:36;20.80;1.00
13245;DHT22;6689;53.400;12.486;2022-09-12T17:18:09;20.70;1.00
13245;DHT22;6689;53.400;12.486;2022-09-12T17:20:55;20.60;1.00
13245;DHT22;6689;53.400;12.486;2022-09-12T17:23:35;20.50;1.00
13245;DHT22;6689;53.400;12.486;2022-09-12T17:26:05;20.30;1.00
13245;DHT22;6689;53.400;12.486;2022-09-12T17:28:40;20.20;1.00
13245;DHT22;6689;53.400;12.486;2022-09-12T17:31:11;20.20;1.00